sensor_id;sensor_type;location;lat;lon;timestamp;pressure;altitude;pressure_sealevel;temperature;humidity
48200;BME280;33990;44.602;10.976;2022-08-21T00:00:34;100624.78;;;26.22;51.67
48200;BME280;33990;44.602;10.976;2022-08-21T00:03:05;100629.38;;;26.21;51.65
48200;BME280;33990;44.602;10.976;2022-08-21T00:05:40;100619.34;;;26.22;51.61
48200;BME280;33990;44.602;10.976;2022-08-21T00:08:08;100623.94;;;26.21;51.70
48200;BME280;33990;44.602;10.976;2022-08-21T00:10:35;100629.19;;;26.23;51.76
48200;BME280;33990;44.602;10.976;2022-08-21T00:13:04;100632.91;;;26.22;51.74
48200;BME280;33990;44.602;10.976;2022-08-21T00:15:33;100635.63;;;26.22;51.47
48200;BME280;33990;44.602;10.976;2022-08-21T00:18:01;100635.63;;;26.22;51.64
48200;BME280;33990;44.602;10.976;2022-08-21T00:20:28;100642.94;;;26.21;51.67
48200;BME280;33990;44.602;10.976;2022-08-21T00:22:57;100642.75;;;26.23;51.79
48200;BME280;33990;44.602;10.976;2022-08-21T00:25:25;100638.16;;;26.23;51.88
48200;BME280;33990;44.602;10.976;2022-08-21T00:27:54;100641.91;;;26.22;51.94
48200;BME280;33990;44.602;10.976;2022-08-21T00:30:23;100647.34;;;26.22;51.89
48200;BME280;33990;44.602;10.976;2022-08-21T00:32:52;100650.03;;;26.22;52.13
48200;BME280;33990;44.602;10.976;2022-08-21T00:35:27;100641.91;;;26.22;52.02
48200;BME280;33990;44.602;10.976;2022-08-21T00:37:55;100637.31;;;26.23;52.21
48200;BME280;33990;44.602;10.976;2022-08-21T00:40:28;100635.63;;;26.22;52.21
48200;BME280;33990;44.602;10.976;2022-08-21T00:42:56;100643.78;;;26.22;52.04
48200;BME280;33990;44.602;10.976;2022-08-21T00:45:24;100640.03;;;26.23;52.07
48200;BME280;33990;44.602;10.976;2022-08-21T00:47:51;100633.75;;;26.22;52.26
48200;BME280;33990;44.602;10.976;2022-08-21T00:50:19;100631.22;;;26.21;52.28
48200;BME280;33990;44.602;10.976;2022-08-21T00:52:51;100635.63;;;26.22;52.11
48200;BME280;33990;44.602;10.976;2022-08-21T00:55:20;100622.91;;;26.22;52.03
48200;BME280;33990;44.602;10.976;2022-08-21T00:57:52;100626.66;;;26.21;52.28
48200;BME280;33990;44.602;10.976;2022-08-21T01:00:25;100627.50;;;26.22;52.19
48200;BME280;33990;44.602;10.976;2022-08-21T01:02:56;100627.50;;;26.22;52.29
48200;BME280;33990;44.602;10.976;2022-08-21T01:05:25;100623.94;;;26.21;52.27
48200;BME280;33990;44.602;10.976;2022-08-21T01:07:53;100626.66;;;26.21;52.13
48200;BME280;33990;44.602;10.976;2022-08-21T01:10:21;100632.09;;;26.21;52.29
48200;BME280;33990;44.602;10.976;2022-08-21T01:12:52;100634.78;;;26.21;52.24
48200;BME280;33990;44.602;10.976;2022-08-21T01:15:22;100630.22;;;26.22;52.22
48200;BME280;33990;44.602;10.976;2022-08-21T01:17:50;100635.63;;;26.22;52.38
48200;BME280;33990;44.602;10.976;2022-08-21T01:20:18;100642.06;;;26.21;52.51
48200;BME280;33990;44.602;10.976;2022-08-21T01:22:45;100633.09;;;26.20;52.35
48200;BME280;33990;44.602;10.976;2022-08-21T01:25:18;100633.94;;;26.21;52.42
48200;BME280;33990;44.602;10.976;2022-08-21T01:27:48;100631.22;;;26.21;52.49
48200;BME280;33990;44.602;10.976;2022-08-21T01:30:20;100630.22;;;26.22;52.51
48200;BME280;33990;44.602;10.976;2022-08-21T01:32:49;100630.22;;;26.22;52.56
48200;BME280;33990;44.602;10.976;2022-08-21T01:35:18;100625.78;;;26.21;52.75
48200;BME280;33990;44.602;10.976;2022-08-21T01:37:47;100628.50;;;26.21;52.89
48200;BME280;33990;44.602;10.976;2022-08-21T01:40:16;100621.22;;;26.21;52.71
48200;BME280;33990;44.602;10.976;2022-08-21T01:42:45;100623.06;;;26.21;52.72
48200;BME280;33990;44.602;10.976;2022-08-21T01:45:14;100617.66;;;26.21;52.76
48200;BME280;33990;44.602;10.976;2022-08-21T01:47:43;100618.50;;;26.21;52.85
48200;BME280;33990;44.602;10.976;2022-08-21T01:50:18;100617.66;;;26.21;52.70
48200;BME280;33990;44.602;10.976;2022-08-21T01:52:46;100613.94;;;26.22;52.78
48200;BME280;33990;44.602;10.976;2022-08-21T01:55:15;100608.66;;;26.20;52.82
48200;BME280;33990;44.602;10.976;2022-08-21T01:57:44;100610.38;;;26.21;52.49
48200;BME280;33990;44.602;10.976;2022-08-21T02:00:14;100610.38;;;26.21;52.43
48200;BME280;33990;44.602;10.976;2022-08-21T02:02:42;100612.22;;;26.21;52.49
48200;BME280;33990;44.602;10.976;2022-08-21T02:05:11;100612.22;;;26.21;52.52
48200;BME280;33990;44.602;10.976;2022-08-21T02:07:41;100614.94;;;26.21;52.39
48200;BME280;33990;44.602;10.976;2022-08-21T02:10:11;100612.22;;;26.21;52.51
48200;BME280;33990;44.602;10.976;2022-08-21T02:12:38;100617.66;;;26.21;52.29
48200;BME280;33990;44.602;10.976;2022-08-21T02:15:07;100612.22;;;26.21;52.44
48200;BME280;33990;44.602;10.976;2022-08-21T02:17:45;100602.41;;;26.20;52.34
48200;BME280;33990;44.602;10.976;2022-08-21T02:20:18;100595.09;;;26.20;52.48
48200;BME280;33990;44.602;10.976;2022-08-21T02:22:46;100599.69;;;26.20;52.53
48200;BME280;33990;44.602;10.976;2022-08-21T02:25:14;100591.53;;;26.20;52.39
48200;BME280;33990;44.602;10.976;2022-08-21T02:27:43;100595.09;;;26.20;52.56
48200;BME280;33990;44.602;10.976;2022-08-21T02:30:14;100591.53;;;26.20;52.54
48200;BME280;33990;44.602;10.976;2022-08-21T02:32:42;100602.41;;;26.20;52.52
48200;BME280;33990;44.602;10.976;2022-08-21T02:35:10;100595.94;;;26.21;52.49
48200;BME280;33990;44.602;10.976;2022-08-21T02:40:12;100601.56;;;26.19;52.33
48200;BME280;33990;44.602;10.976;2022-08-21T02:42:40;100598.00;;;26.19;52.41
48200;BME280;33990;44.602;10.976;2022-08-21T02:45:07;100595.09;;;26.20;52.46
48200;BME280;33990;44.602;10.976;2022-08-21T02:47:35;100602.41;;;26.20;52.51
48200;BME280;33990;44.602;10.976;2022-08-21T02:50:04;100602.41;;;26.20;52.23
48200;BME280;33990;44.602;10.976;2022-08-21T02:52:31;100594.25;;;26.20;52.51
48200;BME280;33990;44.602;10.976;2022-08-21T02:55:00;100591.53;;;26.20;52.54
48200;BME280;33990;44.602;10.976;2022-08-21T02:57:28;100594.25;;;26.20;52.44
48200;BME280;33990;44.602;10.976;2022-08-21T02:59:55;100593.41;;;26.19;52.21
48200;BME280;33990;44.602;10.976;2022-08-21T03:02:22;100588.84;;;26.20;52.52
48200;BME280;33990;44.602;10.976;2022-08-21T03:04:52;100599.69;;;26.20;52.24
48200;BME280;33990;44.602;10.976;2022-08-21T03:07:20;100598.84;;;26.19;52.30
48200;BME280;33990;44.602;10.976;2022-08-21T03:09:47;100602.41;;;26.20;52.15
48200;BME280;33990;44.602;10.976;2022-08-21T03:12:22;100609.69;;;26.19;52.20
48200;BME280;33990;44.602;10.976;2022-08-21T03:14:52;100601.56;;;26.19;52.17
48200;BME280;33990;44.602;10.976;2022-08-21T03:17:19;100600.72;;;26.19;52.16
48200;BME280;33990;44.602;10.976;2022-08-21T03:19:56;100598.00;;;26.19;52.09
48200;BME280;33990;44.602;10.976;2022-08-21T03:22:24;100601.56;;;26.19;52.06
48200;BME280;33990;44.602;10.976;2022-08-21T03:24:53;100599.69;;;26.20;51.95
48200;BME280;33990;44.602;10.976;2022-08-21T03:27:20;100595.09;;;26.20;52.15
48200;BME280;33990;44.602;10.976;2022-08-21T03:29:48;100598.84;;;26.19;51.98
48200;BME280;33990;44.602;10.976;2022-08-21T03:32:16;100589.88;;;26.19;52.04
48200;BME280;33990;44.602;10.976;2022-08-21T03:34:43;100593.41;;;26.19;52.13
48200;BME280;33990;44.602;10.976;2022-08-21T03:37:11;100586.31;;;26.18;51.97
48200;BME280;33990;44.602;10.976;2022-08-21T03:39:40;100592.56;;;26.19;52.04
48200;BME280;33990;44.602;10.976;2022-08-21T03:42:08;100587.16;;;26.19;52.09
48200;BME280;33990;44.602;10.976;2022-08-21T03:44:36;100580.88;;;26.18;52.16
48200;BME280;33990;44.602;10.976;2022-08-21T03:47:04;100580.03;;;26.18;52.19
48200;BME280;33990;44.602;10.976;2022-08-21T03:49:32;100571.91;;;26.18;52.11
48200;BME280;33990;44.602;10.976;2022-08-21T03:52:00;100576.50;;;26.17;51.77
48200;BME280;33990;44.602;10.976;2022-08-21T03:54:28;100575.81;;;26.15;52.02
48200;BME280;33990;44.602;10.976;2022-08-21T03:56:55;100576.19;;;26.12;51.63
48200;BME280;33990;44.602;10.976;2022-08-21T03:59:23;100584.50;;;26.10;51.96
48200;BME280;33990;44.602;10.976;2022-08-21T04:01:59;100579.09;;;26.10;51.88
48200;BME280;33990;44.602;10.976;2022-08-21T04:04:28;100587.22;;;26.10;52.03
48200;BME280;33990;44.602;10.976;2022-08-21T04:06:56;100588.25;;;26.09;51.64
48200;BME280;33990;44.602;10.976;2022-08-21T04:09:25;100591.13;;;26.08;51.96
48200;BME280;33990;44.602;10.976;2022-08-21T04:11:53;100591.31;;;26.06;51.87
48200;BME280;33990;44.602;10.976;2022-08-21T04:14:20;100586.06;;;26.05;52.21
48200;BME280;33990;44.602;10.976;2022-08-21T04:16:48;100585.22;;;26.04;52.16
48200;BME280;33990;44.602;10.976;2022-08-21T04:19:15;100585.22;;;26.04;52.24
48200;BME280;33990;44.602;10.976;2022-08-21T04:21:43;100592.34;;;26.05;52.16
48200;BME280;33990;44.602;10.976;2022-08-21T04:24:12;100589.81;;;26.04;52.08
48200;BME280;33990;44.602;10.976;2022-08-21T04:26:39;100596.28;;;26.03;52.14
48200;BME280;33990;44.602;10.976;2022-08-21T04:29:06;100597.09;;;26.03;52.31
48200;BME280;33990;44.602;10.976;2022-08-21T04:31:36;100599.81;;;26.03;52.22
48200;BME280;33990;44.602;10.976;2022-08-21T04:34:04;100595.44;;;26.02;52.26
48200;BME280;33990;44.602;10.976;2022-08-21T04:36:32;100591.88;;;26.02;52.23
48200;BME280;33990;44.602;10.976;2022-08-21T04:39:00;100601.88;;;26.01;52.19
48200;BME280;33990;44.602;10.976;2022-08-21T04:41:29;100600.19;;;26.00;52.15
48200;BME280;33990;44.602;10.976;2022-08-21T04:43:57;100603.56;;;26.02;52.31
48200;BME280;33990;44.602;10.976;2022-08-21T04:46:24;100607.31;;;26.01;52.32
48200;BME280;33990;44.602;10.976;2022-08-21T04:48:52;100610.03;;;26.01;52.31
48200;BME280;33990;44.602;10.976;2022-08-21T04:51:24;100617.28;;;26.01;52.40
48200;BME280;33990;44.602;10.976;2022-08-21T04:54:02;100611.88;;;26.01;52.40
48200;BME280;33990;44.602;10.976;2022-08-21T04:56:35;100613.09;;;25.98;52.30
48200;BME280;33990;44.602;10.976;2022-08-21T04:59:06;100616.66;;;25.99;52.41
48200;BME280;33990;44.602;10.976;2022-08-21T05:01:39;100616.84;;;25.97;52.48
48200;BME280;33990;44.602;10.976;2022-08-21T05:04:09;100625.13;;;25.96;52.50
48200;BME280;33990;44.602;10.976;2022-08-21T05:06:38;100615.97;;;25.97;52.76
48200;BME280;33990;44.602;10.976;2022-08-21T05:09:09;100625.97;;;25.96;52.56
48200;BME280;33990;44.602;10.976;2022-08-21T05:11:39;100623.25;;;25.96;52.64
48200;BME280;33990;44.602;10.976;2022-08-21T05:14:08;100615.13;;;25.96;52.63
48200;BME280;33990;44.602;10.976;2022-08-21T05:16:36;100617.00;;;25.96;52.47
48200;BME280;33990;44.602;10.976;2022-08-21T05:19:08;100614.47;;;25.94;52.49
48200;BME280;33990;44.602;10.976;2022-08-21T05:21:38;100620.75;;;25.95;52.57
48200;BME280;33990;44.602;10.976;2022-08-21T05:24:06;100619.91;;;25.94;52.45
48200;BME280;33990;44.602;10.976;2022-08-21T05:26:34;100621.78;;;25.94;52.29
48200;BME280;33990;44.602;10.976;2022-08-21T05:29:15;100619.22;;;25.92;52.30
48200;BME280;33990;44.602;10.976;2022-08-21T05:31:46;100621.09;;;25.92;52.25
48200;BME280;33990;44.602;10.976;2022-08-21T05:34:17;100622.97;;;25.91;52.12
48200;BME280;33990;44.602;10.976;2022-08-21T05:36:45;100615.88;;;25.90;52.13
48200;BME280;33990;44.602;10.976;2022-08-21T05:39:12;100624.66;;;25.92;52.02
48200;BME280;33990;44.602;10.976;2022-08-21T05:41:40;100624.66;;;25.92;52.21
48200;BME280;33990;44.602;10.976;2022-08-21T05:44:07;100629.06;;;25.93;52.24
48200;BME280;33990;44.602;10.976;2022-08-21T05:46:36;100623.66;;;25.93;52.27
48200;BME280;33990;44.602;10.976;2022-08-21T05:49:04;100625.31;;;25.94;52.40
48200;BME280;33990;44.602;10.976;2022-08-21T05:51:32;100627.19;;;25.94;51.99
48200;BME280;33990;44.602;10.976;2022-08-21T05:53:59;100642.63;;;25.93;51.35
48200;BME280;33990;44.602;10.976;2022-08-21T05:56:26;100632.13;;;25.90;51.04
48200;BME280;33990;44.602;10.976;2022-08-21T05:58:53;100638.94;;;25.86;50.55
48200;BME280;33990;44.602;10.976;2022-08-21T06:01:21;100636.78;;;25.81;50.73
48200;BME280;33990;44.602;10.976;2022-08-21T06:03:49;100643.06;;;25.74;50.65
48200;BME280;33990;44.602;10.976;2022-08-21T06:06:17;100641.22;;;25.66;50.73
48200;BME280;33990;44.602;10.976;2022-08-21T06:08:44;100647.53;;;25.58;50.89
48200;BME280;33990;44.602;10.976;2022-08-21T06:11:12;100644.53;;;25.53;51.10
48200;BME280;33990;44.602;10.976;2022-08-21T06:13:39;100640.00;;;25.46;51.46
48200;BME280;33990;44.602;10.976;2022-08-21T06:16:11;100643.88;;;25.43;51.53
48200;BME280;33990;44.602;10.976;2022-08-21T06:18:44;100639.50;;;25.42;51.94
48200;BME280;33990;44.602;10.976;2022-08-21T06:21:12;100634.06;;;25.42;52.05
48200;BME280;33990;44.602;10.976;2022-08-21T06:23:41;100640.34;;;25.43;52.29
48200;BME280;33990;44.602;10.976;2022-08-21T06:26:11;100642.84;;;25.44;52.45
48200;BME280;33990;44.602;10.976;2022-08-21T06:28:40;100635.59;;;25.45;52.52
48200;BME280;33990;44.602;10.976;2022-08-21T06:31:27;100641.84;;;25.45;52.51
48200;BME280;33990;44.602;10.976;2022-08-21T06:33:56;100637.44;;;25.44;52.50
48200;BME280;33990;44.602;10.976;2022-08-21T06:36:23;100640.00;;;25.46;52.27
48200;BME280;33990;44.602;10.976;2022-08-21T06:38:51;100637.44;;;25.44;52.25
48200;BME280;33990;44.602;10.976;2022-08-21T06:41:19;100639.50;;;25.42;52.42
48200;BME280;33990;44.602;10.976;2022-08-21T06:43:53;100636.97;;;25.40;52.22
48200;BME280;33990;44.602;10.976;2022-08-21T06:46:25;100638.16;;;25.38;52.04
48200;BME280;33990;44.602;10.976;2022-08-21T06:48:53;100637.47;;;25.36;52.35
48200;BME280;33990;44.602;10.976;2022-08-21T06:51:21;100642.25;;;25.34;52.22
48200;BME280;33990;44.602;10.976;2022-08-21T06:53:49;100637.00;;;25.32;52.41
48200;BME280;33990;44.602;10.976;2022-08-21T06:56:16;100642.59;;;25.31;52.33
48200;BME280;33990;44.602;10.976;2022-08-21T06:58:44;100642.59;;;25.31;52.44
48200;BME280;33990;44.602;10.976;2022-08-21T07:01:11;100642.59;;;25.31;52.36
48200;BME280;33990;44.602;10.976;2022-08-21T07:03:41;100637.34;;;25.29;51.99
48200;BME280;33990;44.602;10.976;2022-08-21T07:06:10;100637.50;;;25.28;51.97
48200;BME280;33990;44.602;10.976;2022-08-21T07:08:38;100635.66;;;25.28;51.83
48200;BME280;33990;44.602;10.976;2022-08-21T07:11:18;100636.66;;;25.27;51.33
48200;BME280;33990;44.602;10.976;2022-08-21T07:13:47;100638.72;;;25.25;51.08
48200;BME280;33990;44.602;10.976;2022-08-21T07:16:15;100636.84;;;25.26;51.05
48200;BME280;33990;44.602;10.976;2022-08-21T07:18:42;100644.97;;;25.26;51.19
48200;BME280;33990;44.602;10.976;2022-08-21T07:21:10;100640.59;;;25.25;51.02
48200;BME280;33990;44.602;10.976;2022-08-21T07:23:44;100647.88;;;25.24;51.04
48200;BME280;33990;44.602;10.976;2022-08-21T07:26:13;100636.84;;;25.26;51.19
48200;BME280;33990;44.602;10.976;2022-08-21T07:28:41;100639.22;;;25.29;51.53
48200;BME280;33990;44.602;10.976;2022-08-21T07:31:10;100648.00;;;25.31;51.27
48200;BME280;33990;44.602;10.976;2022-08-21T07:33:41;100638.00;;;25.31;51.25
48200;BME280;33990;44.602;10.976;2022-08-21T07:36:09;100639.53;;;25.34;51.47
48200;BME280;33990;44.602;10.976;2022-08-21T07:38:37;100637.66;;;25.34;51.28
48200;BME280;33990;44.602;10.976;2022-08-21T07:41:16;100640.38;;;25.34;51.06
48200;BME280;33990;44.602;10.976;2022-08-21T07:43:45;100642.06;;;25.35;50.99
48200;BME280;33990;44.602;10.976;2022-08-21T07:46:13;100642.91;;;25.36;50.92
48200;BME280;33990;44.602;10.976;2022-08-21T07:48:41;100639.00;;;25.38;50.74
48200;BME280;33990;44.602;10.976;2022-08-21T07:51:12;100640.69;;;25.39;51.07
48200;BME280;33990;44.602;10.976;2022-08-21T07:53:41;100641.53;;;25.40;50.53
48200;BME280;33990;44.602;10.976;2022-08-21T07:56:09;100640.69;;;25.39;50.58
48200;BME280;33990;44.602;10.976;2022-08-21T07:58:38;100642.19;;;25.42;50.93
48200;BME280;33990;44.602;10.976;2022-08-21T08:01:06;100645.75;;;25.43;50.88
48200;BME280;33990;44.602;10.976;2022-08-21T08:03:33;100646.59;;;25.43;50.72
48200;BME280;33990;44.602;10.976;2022-08-21T08:06:01;100642.69;;;25.46;50.88
48200;BME280;33990;44.602;10.976;2022-08-21T08:08:31;100646.06;;;25.48;50.87
48200;BME280;33990;44.602;10.976;2022-08-21T08:10:59;100639.63;;;25.49;51.10
48200;BME280;33990;44.602;10.976;2022-08-21T08:13:27;100640.28;;;25.51;51.18
48200;BME280;33990;44.602;10.976;2022-08-21T08:15:54;100634.72;;;25.52;51.42
48200;BME280;33990;44.602;10.976;2022-08-21T08:18:22;100633.69;;;25.53;51.63
48200;BME280;33990;44.602;10.976;2022-08-21T08:20:49;100628.91;;;25.55;51.54
48200;BME280;33990;44.602;10.976;2022-08-21T08:23:16;100627.03;;;25.56;51.31
48200;BME280;33990;44.602;10.976;2022-08-21T08:25:44;100631.47;;;25.57;51.44
48200;BME280;33990;44.602;10.976;2022-08-21T08:28:11;100634.81;;;25.59;51.42
48200;BME280;33990;44.602;10.976;2022-08-21T08:30:45;100623.81;;;25.60;51.44
48200;BME280;33990;44.602;10.976;2022-08-21T08:33:13;100621.75;;;25.62;51.44
48200;BME280;33990;44.602;10.976;2022-08-21T08:35:42;100634.13;;;25.65;51.53
48200;BME280;33990;44.602;10.976;2022-08-21T08:38:12;100624.97;;;25.66;51.56
48200;BME280;33990;44.602;10.976;2022-08-21T08:43:12;100629.84;;;25.71;51.44
48200;BME280;33990;44.602;10.976;2022-08-21T08:45:45;100622.41;;;25.73;51.75
48200;BME280;33990;44.602;10.976;2022-08-21T08:48:28;100616.78;;;25.74;51.52
48200;BME280;33990;44.602;10.976;2022-08-21T08:51:00;100613.88;;;25.76;51.67
48200;BME280;33990;44.602;10.976;2022-08-21T08:53:33;100604.75;;;25.77;51.59
48200;BME280;33990;44.602;10.976;2022-08-21T08:56:04;100617.31;;;25.78;51.51
48200;BME280;33990;44.602;10.976;2022-08-21T08:58:37;100604.38;;;25.80;51.86
48200;BME280;33990;44.602;10.976;2022-08-21T09:01:14;100604.38;;;25.80;51.61
48200;BME280;33990;44.602;10.976;2022-08-21T09:03:43;100602.34;;;25.82;51.67
48200;BME280;33990;44.602;10.976;2022-08-21T09:06:28;100597.78;;;25.82;51.67
48200;BME280;33990;44.602;10.976;2022-08-21T09:27:45;100597.91;;;25.89;51.85
48200;BME280;33990;44.602;10.976;2022-08-21T09:30:12;100599.59;;;25.90;52.05
48200;BME280;33990;44.602;10.976;2022-08-21T09:32:40;100598.56;;;25.91;51.93
48200;BME280;33990;44.602;10.976;2022-08-21T09:43:19;100580.25;;;25.93;51.96
48200;BME280;33990;44.602;10.976;2022-08-21T09:45:48;100579.22;;;25.94;52.02
48200;BME280;33990;44.602;10.976;2022-08-21T09:48:24;100569.22;;;25.95;52.14
48200;BME280;33990;44.602;10.976;2022-08-21T09:50:53;100562.94;;;25.94;52.08
48200;BME280;33990;44.602;10.976;2022-08-21T09:53:32;100567.13;;;25.97;52.04
48200;BME280;33990;44.602;10.976;2022-08-21T09:56:04;100571.72;;;25.96;52.06
48200;BME280;33990;44.602;10.976;2022-08-21T09:58:51;100561.72;;;25.97;52.05
48200;BME280;33990;44.602;10.976;2022-08-21T10:01:22;100556.28;;;25.97;52.17
48200;BME280;33990;44.602;10.976;2022-08-21T10:04:10;100557.16;;;25.97;52.08
48200;BME280;33990;44.602;10.976;2022-08-21T10:06:38;100549.88;;;25.98;52.16
48200;BME280;33990;44.602;10.976;2022-08-21T10:09:17;100556.13;;;25.98;51.95
48200;BME280;33990;44.602;10.976;2022-08-21T10:11:55;100552.38;;;25.99;51.96
48200;BME280;33990;44.602;10.976;2022-08-21T10:14:45;100548.81;;;25.99;52.06
48200;BME280;33990;44.602;10.976;2022-08-21T10:17:25;100550.50;;;26.00;52.32
48200;BME280;33990;44.602;10.976;2022-08-21T10:35:37;100532.19;;;26.02;52.21
48200;BME280;33990;44.602;10.976;2022-08-21T10:41:26;100530.13;;;26.04;52.27
48200;BME280;33990;44.602;10.976;2022-08-21T10:49:45;100520.13;;;26.04;52.27
48200;BME280;33990;44.602;10.976;2022-08-21T10:55:21;100520.78;;;26.06;52.27
48200;BME280;33990;44.602;10.976;2022-08-21T10:58:02;100518.09;;;26.06;52.24
48200;BME280;33990;44.602;10.976;2022-08-21T11:00:45;100515.38;;;26.06;52.16
48200;BME280;33990;44.602;10.976;2022-08-21T11:03:29;100518.91;;;26.07;52.13
48200;BME280;33990;44.602;10.976;2022-08-21T11:06:13;100512.66;;;26.06;52.26
48200;BME280;33990;44.602;10.976;2022-08-21T11:08:45;100508.91;;;26.07;52.22
48200;BME280;33990;44.602;10.976;2022-08-21T11:13:52;100503.47;;;26.07;52.26
48200;BME280;33990;44.602;10.976;2022-08-21T11:16:30;100497.84;;;26.09;52.22
48200;BME280;33990;44.602;10.976;2022-08-21T11:22:02;100488.03;;;26.08;52.16
48200;BME280;33990;44.602;10.976;2022-08-21T11:27:58;100482.44;;;26.09;52.37
48200;BME280;33990;44.602;10.976;2022-08-21T11:30:38;100482.44;;;26.09;52.28
48200;BME280;33990;44.602;10.976;2022-08-21T11:33:29;100477.03;;;26.09;52.29
48200;BME280;33990;44.602;10.976;2022-08-21T11:36:15;100472.44;;;26.10;52.29
48200;BME280;33990;44.602;10.976;2022-08-21T11:41:46;100476.81;;;26.11;52.35
48200;BME280;33990;44.602;10.976;2022-08-21T11:44:46;100476.81;;;26.11;52.23
48200;BME280;33990;44.602;10.976;2022-08-21T11:47:35;100482.06;;;26.12;52.26
48200;BME280;33990;44.602;10.976;2022-08-21T11:50:18;100468.50;;;26.12;52.44
48200;BME280;33990;44.602;10.976;2022-08-21T11:53:12;100476.63;;;26.12;52.39
48200;BME280;33990;44.602;10.976;2022-08-21T11:58:22;100465.78;;;26.12;52.60
48200;BME280;33990;44.602;10.976;2022-08-21T12:00:57;100465.78;;;26.12;52.35
48200;BME280;33990;44.602;10.976;2022-08-21T12:03:42;100470.19;;;26.13;52.40
48200;BME280;33990;44.602;10.976;2022-08-21T12:06:31;100470.19;;;26.13;52.27
48200;BME280;33990;44.602;10.976;2022-08-21T12:09:51;100466.44;;;26.14;52.27
48200;BME280;33990;44.602;10.976;2022-08-21T12:12:33;100463.75;;;26.14;52.47
48200;BME280;33990;44.602;10.976;2022-08-21T12:17:58;100456.44;;;26.15;52.25
48200;BME280;33990;44.602;10.976;2022-08-21T12:25:42;100451.84;;;26.16;52.29
48200;BME280;33990;44.602;10.976;2022-08-21T12:28:13;100445.38;;;26.17;52.18
48200;BME280;33990;44.602;10.976;2022-08-21T12:30:44;100441.00;;;26.16;52.14
48200;BME280;33990;44.602;10.976;2022-08-21T12:33:35;100439.97;;;26.17;52.23
48200;BME280;33990;44.602;10.976;2022-08-21T12:36:20;100435.41;;;26.17;52.21
48200;BME280;33990;44.602;10.976;2022-08-21T12:38:50;100436.25;;;26.18;52.27
48200;BME280;33990;44.602;10.976;2022-08-21T12:41:22;100431.81;;;26.17;52.36
48200;BME280;33990;44.602;10.976;2022-08-21T12:44:10;100433.53;;;26.18;52.17
48200;BME280;33990;44.602;10.976;2022-08-21T12:46:45;100436.25;;;26.18;52.27
48200;BME280;33990;44.602;10.976;2022-08-21T12:49:16;100440.63;;;26.19;52.15
48200;BME280;33990;44.602;10.976;2022-08-21T12:54:29;100419.75;;;26.19;52.28
48200;BME280;33990;44.602;10.976;2022-08-21T12:57:02;100422.47;;;26.19;52.31
48200;BME280;33990;44.602;10.976;2022-08-21T12:59:31;100421.63;;;26.19;52.09
48200;BME280;33990;44.602;10.976;2022-08-21T13:02:00;100414.34;;;26.19;52.10
48200;BME280;33990;44.602;10.976;2022-08-21T13:04:38;100408.91;;;26.19;52.13
48200;BME280;33990;44.602;10.976;2022-08-21T13:07:09;100412.47;;;26.20;52.31
48200;BME280;33990;44.602;10.976;2022-08-21T13:09:47;100404.31;;;26.20;52.21
48200;BME280;33990;44.602;10.976;2022-08-21T13:12:17;100400.56;;;26.21;51.97
48200;BME280;33990;44.602;10.976;2022-08-21T13:14:46;100398.91;;;26.20;51.94
48200;BME280;33990;44.602;10.976;2022-08-21T13:17:17;100389.72;;;26.21;52.04
48200;BME280;33990;44.602;10.976;2022-08-21T13:20:04;100389.72;;;26.21;51.88
48200;BME280;33990;44.602;10.976;2022-08-21T13:22:31;100387.00;;;26.21;52.03
48200;BME280;33990;44.602;10.976;2022-08-21T13:25:02;100386.00;;;26.22;51.93
48200;BME280;33990;44.602;10.976;2022-08-21T13:27:33;100384.13;;;26.22;51.98
48200;BME280;33990;44.602;10.976;2022-08-21T13:32:34;100373.28;;;26.22;51.98
48200;BME280;33990;44.602;10.976;2022-08-21T13:35:28;100374.09;;;26.23;51.90
48200;BME280;33990;44.602;10.976;2022-08-21T13:37:58;100369.53;;;26.23;51.93
48200;BME280;33990;44.602;10.976;2022-08-21T13:40:30;100369.53;;;26.23;52.02
48200;BME280;33990;44.602;10.976;2022-08-21T13:42:58;100362.22;;;26.24;52.03
48200;BME280;33990;44.602;10.976;2022-08-21T13:45:31;100352.41;;;26.23;52.13
48200;BME280;33990;44.602;10.976;2022-08-21T13:48:02;100355.94;;;26.23;51.96
48200;BME280;33990;44.602;10.976;2022-08-21T13:50:35;100355.13;;;26.23;51.98
48200;BME280;33990;44.602;10.976;2022-08-21T13:53:06;100356.78;;;26.24;52.12
48200;BME280;33990;44.602;10.976;2022-08-21T13:55:42;100348.47;;;26.25;51.95
48200;BME280;33990;44.602;10.976;2022-08-21T13:58:10;100350.31;;;26.25;51.74
48200;BME280;33990;44.602;10.976;2022-08-21T14:00:47;100356.63;;;26.25;51.98
48200;BME280;33990;44.602;10.976;2022-08-21T14:03:42;100353.91;;;26.25;52.13
48200;BME280;33990;44.602;10.976;2022-08-21T14:06:18;100346.59;;;26.26;51.77
48200;BME280;33990;44.602;10.976;2022-08-21T14:08:52;100350.16;;;26.26;51.89
48200;BME280;33990;44.602;10.976;2022-08-21T14:11:21;100342.00;;;26.26;51.73
48200;BME280;33990;44.602;10.976;2022-08-21T14:16:52;100343.88;;;26.26;51.95
48200;BME280;33990;44.602;10.976;2022-08-21T14:19:26;100340.13;;;26.27;52.00
48200;BME280;33990;44.602;10.976;2022-08-21T14:21:54;100345.56;;;26.27;52.14
48200;BME280;33990;44.602;10.976;2022-08-21T14:29:47;100327.41;;;26.27;51.68
48200;BME280;33990;44.602;10.976;2022-08-21T14:32:20;100324.69;;;26.27;51.93
48200;BME280;33990;44.602;10.976;2022-08-21T14:34:52;100327.19;;;26.29;51.93
48200;BME280;33990;44.602;10.976;2022-08-21T14:37:22;100325.53;;;26.28;51.75